Time;durP1;ratioP1;P1;durP2;ratioP2;P2;SDS_P1;SDS_P2;PMS_P1;PMS_P2;Temp;Humidity;BMP_temperature;BMP_pressure;BME280_temperature;BME280_humidity;BME280_pressure;Samples;Min_cycle;Max_cycle;Signal;HPM_P1;HPM_P2
2023/12/07 00:01:51;;;;;;;106.60;60.70;;;;;;;-3.05;100.00;98917.92;108811;1251;1003131;-77
2023/12/07 00:04:18;;;;;;;124.30;64.10;;;;;;;-3.06;100.00;98918.29;109549;1251;66926;-76
2023/12/07 00:06:44;;;;;;;111.30;59.30;;;;;;;-3.05;100.00;98920.70;109588;1250;61144;-76
2023/12/07 00:09:11;;;;;;;116.10;59.70;;;;;;;-3.02;100.00;98916.50;108801;1251;1002978;-76
2023/12/07 00:11:38;;;;;;;111.90;59.10;;;;;;;-3.00;100.00;98921.16;109493;1251;58987;-75
2023/12/07 00:14:04;;;;;;;109.90;59.80;;;;;;;-2.98;100.00;98919.55;109564;1251;59176;-77
2023/12/07 00:16:31;;;;;;;109.20;57.90;;;;;;;-2.96;100.00;98924.05;109573;1251;66979;-75
2023/12/07 00:18:58;;;;;;;104.00;56.10;;;;;;;-2.94;100.00;98927.16;109554;1251;59754;-76
2023/12/07 00:21:25;;;;;;;109.10;57.70;;;;;;;-2.93;100.00;98930.44;109562;1251;64968;-77
2023/12/07 00:23:51;;;;;;;102.90;54.70;;;;;;;-2.93;100.00;98929.74;109345;1251;58986;-77
2023/12/07 00:26:18;;;;;;;109.10;59.40;;;;;;;-2.94;100.00;98933.76;109557;1251;59011;-77
2023/12/07 00:28:45;;;;;;;104.30;56.40;;;;;;;-2.92;100.00;98933.58;108798;1251;1002840;-77
2023/12/07 00:31:11;;;;;;;101.40;53.50;;;;;;;-2.92;100.00;98936.69;109582;1251;60073;-76
2023/12/07 00:33:38;;;;;;;108.30;52.80;;;;;;;-2.92;100.00;98935.80;109571;1251;64034;-77
2023/12/07 00:36:05;;;;;;;100.70;52.10;;;;;;;-2.89;100.00;98934.74;109544;1251;58972;-76
2023/12/07 00:38:32;;;;;;;101.70;51.60;;;;;;;-2.88;100.00;98933.33;109355;1251;59449;-76
2023/12/07 00:40:58;;;;;;;89.00;47.20;;;;;;;-2.88;100.00;98936.80;109570;1251;66964;-77
2023/12/07 00:43:25;;;;;;;97.60;50.00;;;;;;;-2.88;100.00;98935.08;109578;1251;60236;-77
2023/12/07 00:45:52;;;;;;;95.90;51.50;;;;;;;-2.88;100.00;98936.45;109581;1251;65031;-76
2023/12/07 00:48:19;;;;;;;98.20;49.50;;;;;;;-2.87;100.00;98935.92;109529;1251;59034;-78
2023/12/07 00:50:46;;;;;;;96.10;49.50;;;;;;;-2.85;100.00;98936.08;109419;1251;58981;-75
2023/12/07 00:53:13;;;;;;;94.30;48.60;;;;;;;-2.85;100.00;98937.80;109531;1251;66209;-77
2023/12/07 00:55:40;;;;;;;90.60;49.00;;;;;;;-2.84;100.00;98935.36;108797;1250;1002636;-76
2023/12/07 00:58:06;;;;;;;100.80;49.60;;;;;;;-2.83;100.00;98935.34;109541;1251;64051;-76
2023/12/07 01:00:33;;;;;;;100.80;49.90;;;;;;;-2.82;100.00;98935.86;109543;1251;58958;-76
2023/12/07 01:03:00;;;;;;;93.30;48.90;;;;;;;-2.80;100.00;98939.13;109595;1251;58999;-76
2023/12/07 01:05:27;;;;;;;97.30;49.30;;;;;;;-2.80;100.00;98942.08;109575;1251;64745;-76
2023/12/07 01:07:53;;;;;;;94.60;50.00;;;;;;;-2.79;100.00;98943.63;109552;1251;60197;-75
2023/12/07 01:10:20;;;;;;;90.30;46.20;;;;;;;-2.78;100.00;98943.80;109566;1251;65028;-76
2023/12/07 01:12:46;;;;;;;95.30;49.00;;;;;;;-2.79;100.00;98943.64;108575;1251;1002265;-76
2023/12/07 01:15:13;;;;;;;99.30;50.70;;;;;;;-2.80;100.00;98942.95;109362;1251;59087;-75
2023/12/07 01:17:39;;;;;;;92.60;47.30;;;;;;;-2.80;100.00;98942.60;109580;1250;66039;-75
2023/12/07 01:20:12;;;;;;;88.30;47.70;;;;;;;-2.80;100.00;98940.36;109590;1251;61021;-76
2023/12/07 01:22:41;;;;;;;95.70;48.00;;;;;;;-2.80;100.00;98939.65;109267;1251;64997;-77
2023/12/07 01:25:08;;;;;;;95.70;47.60;;;;;;;-2.79;100.00;98940.16;109546;1251;59010;-77
2023/12/07 01:27:37;;;;;;;100.20;49.90;;;;;;;-2.79;100.00;98939.98;109475;1251;59066;-76
2023/12/07 01:30:05;;;;;;;93.80;49.50;;;;;;;-2.78;100.00;98935.97;109555;1255;67010;-77
2023/12/07 01:32:31;;;;;;;100.70;50.90;;;;;;;-2.75;100.00;98935.92;109561;1251;60078;-76
2023/12/07 01:34:58;;;;;;;101.20;50.30;;;;;;;-2.72;100.00;98939.38;109553;1251;65099;-75
2023/12/07 01:37:25;;;;;;;100.90;51.80;;;;;;;-2.73;100.00;98944.95;109536;1251;58937;-77
2023/12/07 01:39:52;;;;;;;91.60;50.10;;;;;;;-2.75;100.00;98944.45;109332;1251;59131;-76
2023/12/07 01:42:19;;;;;;;93.80;48.80;;;;;;;-2.76;100.00;98946.02;109590;1251;66070;-77
2023/12/07 01:44:45;;;;;;;96.30;48.70;;;;;;;-2.75;100.00;98945.67;109576;1251;61259;-77
2023/12/07 01:47:12;;;;;;;93.60;47.90;;;;;;;-2.75;100.00;98943.23;109588;1251;64161;-76
2023/12/07 01:49:39;;;;;;;94.30;47.70;;;;;;;-2.76;100.00;98941.33;109532;1251;59031;-76
2023/12/07 01:52:07;;;;;;;90.30;46.30;;;;;;;-2.76;100.00;98939.95;109580;1251;59803;-75
2023/12/07 01:54:34;;;;;;;89.20;45.10;;;;;;;-2.79;100.00;98938.59;109247;1250;66016;-76
2023/12/07 01:57:01;;;;;;;92.00;47.30;;;;;;;-2.81;100.00;98940.19;109587;1251;60008;-77
2023/12/07 01:59:28;;;;;;;89.80;46.10;;;;;;;-2.82;100.00;98939.34;109546;1251;64888;-77
2023/12/07 02:01:55;;;;;;;86.10;45.40;;;;;;;-2.84;100.00;98939.19;109550;1251;59060;-76
2023/12/07 02:04:21;;;;;;;90.30;45.50;;;;;;;-2.84;100.00;98938.48;109610;1251;59057;-76
2023/12/07 02:06:48;;;;;;;94.10;49.10;;;;;;;-2.84;100.00;98941.97;109594;1253;67058;-76
2023/12/07 02:09:15;;;;;;;96.20;48.70;;;;;;;-2.86;100.00;98944.27;109575;1250;61140;-76
2023/12/07 02:11:41;;;;;;;92.90;46.60;;;;;;;-2.87;100.00;98943.05;109356;1251;64221;-76
2023/12/07 02:14:08;;;;;;;86.40;45.40;;;;;;;-2.88;100.00;98949.15;109513;1251;58981;-77
2023/12/07 02:16:44;;;;;;;90.30;45.60;;;;;;;-2.91;100.00;98950.58;109557;1251;59058;-76
2023/12/07 02:19:24;;;;;;;88.10;45.50;;;;;;;-2.92;100.00;98952.86;109527;1251;67187;-76
2023/12/07 02:22:04;;;;;;;92.00;46.50;;;;;;;-2.92;100.00;98955.63;109610;1250;61052;-77
2023/12/07 02:24:33;;;;;;;86.30;46.20;;;;;;;-2.91;100.00;98954.23;109572;1251;64136;-77
2023/12/07 02:27:00;;;;;;;87.20;44.90;;;;;;;-2.90;100.00;98955.43;109531;1251;59036;-77
2023/12/07 02:29:26;;;;;;;100.70;52.60;;;;;;;-2.89;100.00;98955.07;109568;1251;58981;-76
2023/12/07 02:31:53;;;;;;;94.20;47.40;;;;;;;-2.88;100.00;98957.48;109589;1251;65862;-77
2023/12/07 02:34:20;;;;;;;95.70;48.50;;;;;;;-2.88;100.00;98958.18;109544;1251;61023;-77
2023/12/07 02:36:49;;;;;;;90.80;48.90;;;;;;;-2.89;100.00;98958.04;109517;1251;64849;-76
2023/12/07 02:39:16;;;;;;;88.00;45.70;;;;;;;-2.90;100.00;98960.48;109492;1255;58998;-77
2023/12/07 02:41:46;;;;;;;92.20;47.90;;;;;;;-2.90;100.00;98961.52;109397;1251;58901;-76
2023/12/07 02:44:13;;;;;;;92.20;48.00;;;;;;;-2.89;100.00;98961.67;109552;1250;66942;-76
2023/12/07 02:46:40;;;;;;;92.80;48.00;;;;;;;-2.87;100.00;98965.83;109346;1251;60046;-77
2023/12/07 02:49:06;;;;;;;92.00;48.60;;;;;;;-2.85;100.00;98966.15;108820;1251;1002505;-76
2023/12/07 02:51:33;;;;;;;89.90;46.70;;;;;;;-2.83;100.00;98971.01;109567;1251;59428;-76
2023/12/07 02:53:59;;;;;;;91.30;47.70;;;;;;;-2.81;100.00;98970.45;109573;1251;59320;-76
2023/12/07 02:56:26;;;;;;;92.20;47.60;;;;;;;-2.79;100.00;98972.49;109580;1251;67447;-77
2023/12/07 02:58:53;;;;;;;93.90;48.70;;;;;;;-2.76;100.00;98973.86;109586;1251;60207;-77
2023/12/07 03:01:19;;;;;;;84.30;46.90;;;;;;;-2.74;100.00;98975.91;109562;1251;65068;-77
2023/12/07 03:03:46;;;;;;;87.00;50.60;;;;;;;-2.73;100.00;98979.02;109539;1251;59041;-77
2023/12/07 03:06:13;;;;;;;87.30;44.40;;;;;;;-2.71;100.00;98979.35;109573;1251;58994;-77
2023/12/07 03:08:39;;;;;;;91.40;44.70;;;;;;;-2.70;100.00;98980.18;109259;1251;67150;-77
2023/12/07 03:11:06;;;;;;;82.60;44.90;;;;;;;-2.68;100.00;98980.35;109303;1251;60358;-76
2023/12/07 03:13:33;;;;;;;82.10;43.70;;;;;;;-2.68;100.00;98983.48;109570;1251;64047;-75
2023/12/07 03:15:59;;;;;;;84.80;45.70;;;;;;;-2.69;100.00;98986.09;109583;1251;59104;-76
2023/12/07 03:18:26;;;;;;;87.00;45.20;;;;;;;-2.68;100.00;98992.18;109585;1251;58915;-76
2023/12/07 03:20:52;;;;;;;87.50;48.20;;;;;;;-2.67;100.00;98996.34;109617;1251;67167;-76
2023/12/07 03:23:19;;;;;;;88.20;46.50;;;;;;;-2.67;100.00;98993.36;109604;1251;60996;-77
2023/12/07 03:25:45;;;;;;;88.40;49.30;;;;;;;-2.66;100.00;98990.73;109549;1251;65065;-76
2023/12/07 03:28:12;;;;;;;94.90;50.70;;;;;;;-2.65;100.00;98985.35;109566;1251;59012;-76
2023/12/07 03:30:39;;;;;;;92.00;49.60;;;;;;;-2.63;100.00;98984.81;109639;1251;59220;-76
2023/12/07 03:33:05;;;;;;;93.00;50.30;;;;;;;-2.62;100.00;98982.36;109540;1251;67018;-77
2023/12/07 03:35:32;;;;;;;92.20;49.60;;;;;;;-2.62;100.00;98983.92;109569;1251;60064;-77
2023/12/07 03:37:58;;;;;;;87.20;49.40;;;;;;;-2.62;100.00;98985.13;109549;1251;65213;-77
2023/12/07 03:40:25;;;;;;;97.70;51.90;;;;;;;-2.62;100.00;98984.43;109537;1251;59126;-77
2023/12/07 03:42:52;;;;;;;91.60;51.70;;;;;;;-2.62;100.00;98984.26;109579;1251;59369;-77
2023/12/07 03:45:18;;;;;;;93.30;53.90;;;;;;;-2.60;100.00;98990.16;109595;1251;67106;-77
2023/12/07 03:47:45;;;;;;;89.90;52.00;;;;;;;-2.59;100.00;98994.48;109590;1251;60790;-76
2023/12/07 03:50:12;;;;;;;92.90;53.30;;;;;;;-2.58;100.00;98997.77;109548;1251;65028;-77
2023/12/07 03:52:38;;;;;;;91.70;52.50;;;;;;;-2.57;100.00;99002.27;109542;1251;58998;-77
2023/12/07 03:55:05;;;;;;;86.60;51.80;;;;;;;-2.56;100.00;99000.36;109257;1250;173810;-76
2023/12/07 03:57:32;;;;;;;91.20;52.80;;;;;;;-2.55;100.00;98998.96;109591;1251;67228;-77
2023/12/07 03:59:59;;;;;;;88.00;50.70;;;;;;;-2.54;100.00;98997.19;109544;1251;60937;-79
2023/12/07 04:02:26;;;;;;;93.70;53.10;;;;;;;-2.55;100.00;98999.30;109541;1251;64876;-78
2023/12/07 04:04:53;;;;;;;96.30;55.10;;;;;;;-2.57;100.00;98997.94;109537;1251;58971;-78
2023/12/07 04:07:20;;;;;;;89.70;52.50;;;;;;;-2.59;100.00;99002.30;109636;1251;58952;-76
2023/12/07 04:09:46;;;;;;;92.20;53.00;;;;;;;-2.60;100.00;99007.38;109555;1251;67121;-76
2023/12/07 04:12:13;;;;;;;93.30;54.10;;;;;;;-2.60;100.00;99006.67;109573;1251;60932;-77
2023/12/07 04:14:39;;;;;;;94.00;55.50;;;;;;;-2.61;100.00;99005.83;109240;1251;65046;-76
2023/12/07 04:17:06;;;;;;;97.00;56.40;;;;;;;-2.60;100.00;99008.42;109549;1251;58959;-77
2023/12/07 04:19:33;;;;;;;102.70;57.10;;;;;;;-2.60;100.00;99006.52;109527;1251;59095;-77
2023/12/07 04:22:00;;;;;;;100.60;60.90;;;;;;;-2.60;100.00;99009.29;109557;1251;67120;-76
2023/12/07 04:24:26;;;;;;;96.90;54.80;;;;;;;-2.61;100.00;99013.46;109565;1251;60896;-77
2023/12/07 04:26:54;;;;;;;89.40;52.90;;;;;;;-2.62;100.00;99015.39;109527;1251;64953;-78
2023/12/07 04:29:21;;;;;;;93.80;53.00;;;;;;;-2.65;100.00;99016.13;109520;1251;58968;-76
2023/12/07 04:31:47;;;;;;;98.20;57.80;;;;;;;-2.68;100.00;99021.03;109552;1251;59104;-77
2023/12/07 04:34:14;;;;;;;98.10;56.30;;;;;;;-2.70;100.00;99022.64;109571;1251;64775;-77
2023/12/07 04:36:41;;;;;;;97.30;55.30;;;;;;;-2.71;100.00;99021.77;109570;1251;59875;-76
2023/12/07 04:39:08;;;;;;;95.20;53.50;;;;;;;-2.71;100.00;99020.91;109528;1251;73814;-77
2023/12/07 04:41:34;;;;;;;94.10;54.50;;;;;;;-2.72;100.00;99021.44;109539;1254;58962;-76
2023/12/07 04:44:01;;;;;;;100.40;58.00;;;;;;;-2.72;100.00;99019.17;109591;1251;59105;-77
2023/12/07 04:46:28;;;;;;;96.00;58.00;;;;;;;-2.71;100.00;99022.11;109517;1251;67089;-77
2023/12/07 04:48:55;;;;;;;95.00;56.30;;;;;;;-2.70;100.00;99022.11;108829;1251;1002541;-77
2023/12/07 04:51:21;;;;;;;91.70;54.90;;;;;;;-2.68;100.00;99022.44;109577;1251;65046;-76
2023/12/07 04:53:48;;;;;;;97.90;55.40;;;;;;;-2.68;100.00;99024.52;109504;1251;59106;-76
2023/12/07 04:56:15;;;;;;;92.90;56.40;;;;;;;-2.66;100.00;99031.96;109515;1251;59007;-77
2023/12/07 04:58:41;;;;;;;98.00;56.60;;;;;;;-2.65;100.00;99031.44;109541;1251;75645;-76
2023/12/07 05:01:08;;;;;;;99.00;56.60;;;;;;;-2.65;100.00;99027.77;109574;1251;60985;-76
2023/12/07 05:03:34;;;;;;;102.30;58.60;;;;;;;-2.63;100.00;99031.92;109536;1251;64078;-76
2023/12/07 05:06:01;;;;;;;95.10;55.30;;;;;;;-2.64;100.00;99036.46;109290;1251;59050;-76
2023/12/07 05:08:27;;;;;;;91.40;53.10;;;;;;;-2.65;100.00;99040.65;109562;1251;58921;-76
2023/12/07 05:10:54;;;;;;;94.70;54.80;;;;;;;-2.67;100.00;99044.67;109587;1251;66039;-77
2023/12/07 05:13:21;;;;;;;91.60;54.40;;;;;;;-2.68;100.00;99046.95;109531;1251;61092;-76
2023/12/07 05:15:47;;;;;;;95.70;55.90;;;;;;;-2.69;100.00;99048.69;109527;1251;64122;-78
2023/12/07 05:18:14;;;;;;;98.70;55.30;;;;;;;-2.70;100.00;99049.74;109572;1251;59948;-77
2023/12/07 05:20:40;;;;;;;101.00;56.00;;;;;;;-2.71;100.00;99052.37;109543;1251;59005;-77
2023/12/07 05:23:07;;;;;;;99.30;57.50;;;;;;;-2.72;100.00;99056.56;109558;1251;66907;-77
2023/12/07 05:25:34;;;;;;;96.70;56.50;;;;;;;-2.73;100.00;99061.27;109223;1251;60584;-78
2023/12/07 05:28:01;;;;;;;103.60;55.70;;;;;;;-2.74;100.00;99068.41;109550;1251;65138;-77
2023/12/07 05:30:27;;;;;;;101.00;56.00;;;;;;;-2.76;100.00;99073.65;109294;1251;58974;-77
2023/12/07 05:32:54;;;;;;;97.40;54.50;;;;;;;-2.77;100.00;99075.92;109542;1251;59084;-75
2023/12/07 05:35:21;;;;;;;101.00;55.40;;;;;;;-2.78;100.00;99077.85;109592;1251;74740;-77
2023/12/07 05:37:47;;;;;;;103.90;58.70;;;;;;;-2.78;100.00;99075.94;109525;1251;61081;-76
2023/12/07 05:40:15;;;;;;;93.10;55.80;;;;;;;-2.78;100.00;99078.73;109544;1251;65668;-77
2023/12/07 05:42:42;;;;;;;106.80;58.20;;;;;;;-2.78;100.00;99081.84;109504;1251;58975;-77
2023/12/07 05:45:10;;;;;;;97.00;55.90;;;;;;;-2.77;100.00;99081.84;109333;1251;58969;-77
2023/12/07 05:47:36;;;;;;;100.60;56.20;;;;;;;-2.76;100.00;99081.48;109541;1251;67349;-77
2023/12/07 05:50:03;;;;;;;98.70;55.70;;;;;;;-2.73;100.00;99082.14;109521;1251;61016;-76
2023/12/07 05:52:30;;;;;;;96.90;55.70;;;;;;;-2.71;100.00;99085.07;109504;1251;64539;-76
2023/12/07 05:54:57;;;;;;;95.40;54.90;;;;;;;-2.68;100.00;99082.61;109574;1251;58989;-78
2023/12/07 05:57:23;;;;;;;101.00;56.50;;;;;;;-2.67;100.00;99086.40;109544;1251;58812;-77
2023/12/07 05:59:50;;;;;;;96.50;55.20;;;;;;;-2.65;100.00;99090.91;109606;1251;67100;-77
2023/12/07 06:02:16;;;;;;;95.30;53.80;;;;;;;-2.64;100.00;99094.56;109506;1251;60021;-76
2023/12/07 06:04:43;;;;;;;98.60;55.80;;;;;;;-2.64;100.00;99093.15;108774;1251;1003275;-76
2023/12/07 06:07:11;;;;;;;92.60;52.20;;;;;;;-2.64;100.00;99096.98;109539;1251;58995;-76
2023/12/07 06:09:38;;;;;;;100.30;55.30;;;;;;;-2.64;100.00;99102.02;109336;1257;58973;-76
2023/12/07 06:12:05;;;;;;;91.40;49.70;;;;;;;-2.65;100.00;99106.90;109620;1250;67000;-77
2023/12/07 06:14:32;;;;;;;98.80;52.40;;;;;;;-2.66;100.00;99109.17;109555;1251;61206;-76
2023/12/07 06:16:59;;;;;;;98.20;54.80;;;;;;;-2.66;100.00;99109.52;109236;1251;65308;-76
2023/12/07 06:19:25;;;;;;;98.10;53.50;;;;;;;-2.65;100.00;99112.66;109551;1251;59023;-77
2023/12/07 06:21:52;;;;;;;91.90;52.30;;;;;;;-2.64;100.00;99113.67;109570;1251;59132;-77
2023/12/07 06:24:19;;;;;;;97.70;52.90;;;;;;;-2.63;100.00;99117.33;109554;1251;65984;-76
2023/12/07 06:26:45;;;;;;;93.50;52.90;;;;;;;-2.62;100.00;99122.71;109558;1251;60108;-76
2023/12/07 06:29:12;;;;;;;95.30;53.10;;;;;;;-2.62;100.00;99123.23;109567;1251;65648;-76
2023/12/07 06:31:43;;;;;;;100.00;54.80;;;;;;;-2.61;100.00;99125.64;109569;1251;59077;-76
2023/12/07 06:34:10;;;;;;;99.30;56.00;;;;;;;-2.59;100.00;99128.75;109551;1251;59165;-76
2023/12/07 06:36:36;;;;;;;88.70;51.10;;;;;;;-2.58;100.00;99132.39;109572;1251;67012;-76
2023/12/07 06:39:03;;;;;;;96.00;56.70;;;;;;;-2.58;100.00;99132.22;109612;1251;60266;-76
2023/12/07 06:41:30;;;;;;;95.50;55.10;;;;;;;-2.56;100.00;99132.55;109537;1251;65025;-78
2023/12/07 06:43:57;;;;;;;107.50;59.00;;;;;;;-2.54;100.00;99133.38;109583;1251;59313;-77
2023/12/07 06:46:23;;;;;;;103.80;59.70;;;;;;;-2.51;100.00;99140.83;109509;1250;59039;-78
2023/12/07 06:48:50;;;;;;;104.00;59.50;;;;;;;-2.49;100.00;99144.12;109407;1251;64825;-77
2023/12/07 06:51:16;;;;;;;103.20;57.60;;;;;;;-2.46;100.00;99150.52;109569;1250;61055;-76
2023/12/07 06:53:43;;;;;;;106.70;59.80;;;;;;;-2.42;100.00;99148.39;109529;1251;65042;-77
2023/12/07 06:56:10;;;;;;;105.60;58.00;;;;;;;-2.39;100.00;99150.78;109529;1255;59094;-76
2023/12/07 06:58:36;;;;;;;102.00;58.40;;;;;;;-2.36;100.00;99147.96;109582;1251;59049;-77
2023/12/07 07:01:03;;;;;;;98.70;55.20;;;;;;;-2.34;100.00;99148.27;109632;1251;67115;-76
2023/12/07 07:03:30;;;;;;;97.30;56.50;;;;;;;-2.30;100.00;99149.61;109610;1251;61044;-76
2023/12/07 07:05:56;;;;;;;98.50;58.80;;;;;;;-2.28;100.00;99152.55;109532;1251;65066;-77
2023/12/07 07:08:23;;;;;;;109.10;59.00;;;;;;;-2.23;100.00;99150.39;109308;1251;58945;-77
2023/12/07 07:10:49;;;;;;;101.20;57.40;;;;;;;-2.18;100.00;99154.17;109535;1251;59251;-77
2023/12/07 07:13:16;;;;;;;103.50;56.40;;;;;;;-2.13;100.00;99154.46;109538;1251;67009;-76
2023/12/07 07:15:43;;;;;;;100.50;55.30;;;;;;;-2.09;100.00;99159.29;109580;1251;60001;-76
2023/12/07 07:18:10;;;;;;;97.10;55.20;;;;;;;-2.05;100.00;99162.02;109538;1251;64056;-76
2023/12/07 07:20:37;;;;;;;96.00;53.60;;;;;;;-2.01;100.00;99163.70;109552;1251;59075;-76
2023/12/07 07:23:04;;;;;;;106.10;58.80;;;;;;;-1.96;100.00;99165.20;109603;1251;59310;-82
2023/12/07 07:25:30;;;;;;;92.80;53.70;;;;;;;-1.90;100.00;99165.29;109541;1251;67026;-73
2023/12/07 07:27:57;;;;;;;97.70;54.00;;;;;;;-1.84;100.00;99167.98;109491;1251;60862;-74
2023/12/07 07:30:24;;;;;;;101.90;56.60;;;;;;;-1.77;100.00;99168.77;109498;1251;65093;-76
2023/12/07 07:32:51;;;;;;;105.00;57.50;;;;;;;-1.73;100.00;99166.28;109346;1251;59291;-76
2023/12/07 07:35:17;;;;;;;99.60;54.70;;;;;;;-1.71;100.00;99171.64;109487;1251;59026;-76
2023/12/07 07:37:44;;;;;;;99.40;54.00;;;;;;;-1.67;100.00;99172.80;109535;1251;67015;-76
2023/12/07 07:40:11;;;;;;;100.20;56.70;;;;;;;-1.63;100.00;99174.65;109542;1251;61153;-77
2023/12/07 07:42:41;;;;;;;103.10;56.60;;;;;;;-1.59;100.00;99180.52;109400;1251;64039;-74
2023/12/07 07:45:08;;;;;;;;;;;;;;;-1.54;100.00;99182.19;109496;1251;59016;-75
2023/12/07 07:47:35;;;;;;;88.50;50.70;;;;;;;-1.49;100.00;99183.33;109514;1255;59005;-74
2023/12/07 07:50:05;;;;;;;90.50;50.10;;;;;;;-1.45;100.00;99182.58;108548;1251;1002333;-74
2023/12/07 07:52:33;;;;;;;96.00;52.80;;;;;;;-1.41;100.00;99181.29;109551;1255;60922;-73
2023/12/07 07:55:04;;;;;;;91.40;50.70;;;;;;;-1.39;100.00;99182.80;109527;1251;64765;-74
2023/12/07 07:57:31;;;;;;;96.00;52.80;;;;;;;-1.37;100.00;99183.65;109574;1251;59393;-73
2023/12/07 07:59:58;;;;;;;93.00;53.30;;;;;;;-1.36;100.00;99183.99;109538;1256;59042;-73
2023/12/07 08:02:24;;;;;;;88.50;52.40;;;;;;;-1.34;100.00;99183.96;109213;1251;65929;-74
2023/12/07 08:04:51;;;;;;;92.30;53.10;;;;;;;-1.30;100.00;99183.55;109543;1251;61033;-74
2023/12/07 08:07:18;;;;;;;96.70;55.40;;;;;;;-1.28;100.00;99181.95;109544;1251;64027;-74
2023/12/07 08:09:45;;;;;;;99.20;55.20;;;;;;;-1.26;100.00;99185.23;109552;1251;58999;-77
2023/12/07 08:12:12;;;;;;;103.70;58.40;;;;;;;-1.22;100.00;99187.79;109549;1253;59030;-75
2023/12/07 08:14:39;;;;;;;103.90;58.20;;;;;;;-1.17;100.00;99184.40;109533;1251;67196;-72
2023/12/07 08:17:06;;;;;;;107.10;58.50;;;;;;;-1.11;100.00;99184.29;109600;1251;59776;-71
2023/12/07 08:19:32;;;;;;;101.20;59.70;;;;;;;-1.06;100.00;99183.86;109505;1251;64021;-71
2023/12/07 08:21:59;;;;;;;103.20;60.30;;;;;;;-1.04;100.00;99186.27;109537;1251;59323;-71
2023/12/07 08:24:26;;;;;;;97.80;57.80;;;;;;;-1.02;100.00;99187.98;109563;1251;59212;-72
2023/12/07 08:26:52;;;;;;;101.70;58.80;;;;;;;-0.99;100.00;99192.27;109549;1251;65928;-71
2023/12/07 08:29:19;;;;;;;101.40;58.90;;;;;;;-0.93;100.00;99194.45;109563;1251;60335;-72
2023/12/07 08:31:47;;;;;;;106.90;60.70;;;;;;;-0.88;100.00;99200.98;109504;1251;65180;-72
2023/12/07 08:34:14;;;;;;;107.30;58.50;;;;;;;-0.85;100.00;99202.16;109505;1251;58971;-72
2023/12/07 08:36:40;;;;;;;101.20;58.70;;;;;;;-0.82;100.00;99205.07;109543;1251;59013;-72
2023/12/07 08:39:10;;;;;;;98.50;58.90;;;;;;;-0.77;100.00;99206.73;109357;1251;64868;-72
2023/12/07 08:41:37;;;;;;;107.20;59.40;;;;;;;-0.76;100.00;99207.77;109611;1251;60087;-72
2023/12/07 08:44:04;;;;;;;97.00;57.20;;;;;;;-0.76;100.00;99210.03;109547;1251;65253;-72
2023/12/07 08:46:31;;;;;;;98.70;56.10;;;;;;;-0.76;100.00;99213.68;109561;1251;59111;-72
2023/12/07 08:48:57;;;;;;;95.20;56.80;;;;;;;-0.76;100.00;99217.70;109587;1251;59078;-71
2023/12/07 08:51:24;;;;;;;97.80;57.10;;;;;;;-0.79;100.00;99216.88;109614;1251;67273;-72
2023/12/07 08:53:51;;;;;;;105.00;58.30;;;;;;;-0.80;100.00;99217.23;109571;1251;61126;-71
2023/12/07 08:56:19;;;;;;;102.20;59.10;;;;;;;-0.76;100.00;99218.91;109518;1251;62398;-71
2023/12/07 08:58:45;;;;;;;106.60;61.10;;;;;;;-0.68;100.00;99219.84;109354;1251;59017;-71
2023/12/07 09:01:12;;;;;;;107.50;59.20;;;;;;;-0.61;100.00;99219.17;109588;1251;59865;-71
2023/12/07 09:03:39;;;;;;;101.40;59.40;;;;;;;-0.55;100.00;99221.34;109529;1251;66054;-71
2023/12/07 09:06:06;;;;;;;102.80;57.90;;;;;;;-0.50;100.00;99227.17;109537;1251;60977;-71
2023/12/07 09:08:33;;;;;;;102.70;62.10;;;;;;;-0.44;100.00;99231.79;109333;1251;62806;-71
2023/12/07 09:10:59;;;;;;;95.10;59.00;;;;;;;-0.40;100.00;99233.45;109300;1251;59028;-71
2023/12/07 09:13:27;;;;;;;100.30;60.30;;;;;;;-0.36;100.00;99232.86;109611;1251;59785;-78
2023/12/07 09:15:54;;;;;;;99.40;56.80;;;;;;;-0.30;100.00;99231.16;109547;1251;67015;-75
2023/12/07 09:18:21;;;;;;;95.70;58.10;;;;;;;-0.27;100.00;99231.63;109535;1251;61096;-77
2023/12/07 09:20:47;;;;;;;96.80;58.00;;;;;;;-0.28;100.00;99233.04;109551;1251;72871;-75
2023/12/07 09:23:17;;;;;;;101.50;55.50;;;;;;;-0.28;100.00;99230.77;109265;1251;58993;-75
2023/12/07 09:25:43;;;;;;;97.80;56.90;;;;;;;-0.26;100.00;99231.26;109531;1251;58999;-76
2023/12/07 09:28:10;;;;;;;95.50;56.90;;;;;;;-0.26;100.00;99232.48;109375;1251;64717;-76
2023/12/07 09:30:37;;;;;;;100.20;57.40;;;;;;;-0.22;100.00;99231.70;109559;1251;60300;-75
2023/12/07 09:33:03;;;;;;;97.50;56.80;;;;;;;-0.16;100.00;99232.63;109541;1251;72569;-75
2023/12/07 09:35:30;;;;;;;97.40;53.90;;;;;;;-0.08;100.00;99233.36;109552;1251;59220;-75
2023/12/07 09:37:57;;;;;;;88.00;54.70;;;;;;;-0.04;100.00;99230.83;109514;1251;59104;-75
2023/12/07 09:40:25;;;;;;;98.50;58.40;;;;;;;-0.01;100.00;99229.90;109367;1251;66986;-80
2023/12/07 09:42:52;;;;;;;101.10;58.10;;;;;;;0.04;100.00;99227.17;109624;1251;61179;-78
2023/12/07 09:45:20;;;;;;;102.60;59.80;;;;;;;0.10;100.00;99223.73;109557;1251;65352;-73
2023/12/07 09:47:51;;;;;;;98.60;57.60;;;;;;;0.13;100.00;99224.90;109493;1251;58952;-73
2023/12/07 09:50:22;;;;;;;97.60;56.80;;;;;;;0.18;100.00;99223.56;109574;1251;59845;-76
2023/12/07 09:52:56;;;;;;;102.30;58.90;;;;;;;0.24;100.00;99221.86;109556;1251;66033;-76
2023/12/07 09:55:23;;;;;;;101.60;60.20;;;;;;;0.29;100.00;99227.00;109521;1251;61000;-77
2023/12/07 09:57:50;;;;;;;101.20;60.60;;;;;;;0.32;100.00;99227.46;109524;1251;64248;-75
2023/12/07 10:00:17;;;;;;;103.70;61.20;;;;;;;0.37;100.00;99229.79;109559;1251;58911;-75
2023/12/07 10:02:45;;;;;;;101.50;60.20;;;;;;;0.46;100.00;99225.04;109611;1251;59037;-76
2023/12/07 10:05:13;;;;;;;97.50;59.00;;;;;;;0.56;100.00;99222.36;109584;1251;65666;-75
2023/12/07 10:07:41;;;;;;;108.90;65.00;;;;;;;0.68;100.00;99222.45;109596;1251;60035;-75
2023/12/07 10:10:09;;;;;;;104.10;63.60;;;;;;;0.81;100.00;99221.27;109551;1251;65120;-76
2023/12/07 10:12:46;;;;;;;110.30;64.30;;;;;;;0.89;100.00;99220.92;109359;1251;59013;-75
2023/12/07 10:15:15;;;;;;;109.50;64.30;;;;;;;0.94;100.00;99220.62;109509;1251;59118;-75
2023/12/07 10:17:56;;;;;;;105.50;63.30;;;;;;;1.04;100.00;99221.25;109263;1251;74588;-75
2023/12/07 10:20:26;;;;;;;116.90;68.40;;;;;;;1.12;100.00;99218.08;109600;1251;60101;-76
2023/12/07 10:23:05;;;;;;;106.20;64.20;;;;;;;1.19;100.00;99215.63;109348;1251;65136;-75
2023/12/07 10:25:34;;;;;;;105.00;66.00;;;;;;;1.23;100.00;99212.02;109554;1251;58998;-75
2023/12/07 10:28:06;;;;;;;107.70;67.50;;;;;;;1.26;100.00;99211.23;109552;1251;59154;-75
2023/12/07 10:30:34;;;;;;;112.20;66.60;;;;;;;1.32;100.00;99206.35;109513;1251;67003;-75
2023/12/07 10:33:07;;;;;;;101.70;65.20;;;;;;;1.32;100.00;99209.50;109588;1251;61141;-75
2023/12/07 10:35:38;;;;;;;109.30;69.90;;;;;;;1.27;100.00;99213.32;109522;1251;65167;-76
2023/12/07 10:38:05;;;;;;;104.70;66.60;;;;;;;1.29;100.00;99215.02;109523;1251;59204;-76
2023/12/07 10:40:31;;;;;;;106.00;67.80;;;;;;;1.30;100.00;99207.82;109534;1251;59073;-75
2023/12/07 10:43:02;;;;;;;104.40;66.40;;;;;;;1.27;100.00;99212.27;109601;1250;65908;-75
2023/12/07 10:45:30;;;;;;;110.10;67.50;;;;;;;1.20;100.00;99208.61;108804;1251;1002250;-74
2023/12/07 10:48:07;;;;;;;116.30;69.30;;;;;;;1.14;100.00;99206.48;109590;1251;65050;-76
2023/12/07 10:50:43;;;;;;;111.20;67.50;;;;;;;1.11;100.00;99211.62;109025;1251;58938;-76
2023/12/07 10:53:26;;;;;;;118.00;73.20;;;;;;;1.07;100.00;99206.65;109208;1251;59142;-76
2023/12/07 10:55:56;;;;;;;124.90;73.10;;;;;;;0.96;100.00;99210.77;109528;1251;65700;-76
2023/12/07 10:58:25;;;;;;;121.20;72.10;;;;;;;0.89;100.00;99211.64;109577;1251;60047;-76
2023/12/07 11:00:53;;;;;;;123.90;72.40;;;;;;;0.85;100.00;99211.38;109573;1251;64065;-76